Aeroporto :
LOGIN :

Iscrizione | Disclaimer

   EN    FR    IT 

 










Sommario :    VFR   VFR Marginale   IFR   IFR Intensivo   IFR Molto Intensivo
Visibilità : 
Base nubi : 
>= 8 km
>= 3000ft
5 / 8 km
1000 / 3000 ft
1500m / 5 km
500 / 1000 ft
800 / 1500m
200 / 500 ft
< 800m
< 200 ft
Simboli :   Temporali  Nebbia  Neve Forte  Precipitazioni Forti  Vento > 20 kt
SIGMETs :   Varie  Temporali  Ghiacco  Turbolenza  Onda orograficha  Ceneri Vulcaniche






- Altitudine del aeroporto : 102 ft
- Codice IATA : CNG


LFBG - Cognac

ULTIMO METAR :
  • 151030Z AUTO 25011KT 220V280 9999 BKN032 OVC044 24/16 Q1009

METARs OBSOLETI :
  • 151000Z AUTO 23013KT 9999 SCT028 OVC038 24/16 Q1009
  • 150930Z AUTO 23012KT 200V260 9999 BKN030 23/16 Q1009
  • 150900Z AUTO 21009KT 9999 SCT020 SCT026 23/17 Q1009
  • 150830Z AUTO 21009KT 190V250 9999 BKN017 BKN022 BKN027 22/17 Q1009
  • 150800Z AUTO 21009KT 9999 FEW011 BKN030 21/17 Q1009

TAF AMD TAF LFBG
Valido dal 14 a 16 ore il 15 a 15 ore UTC


141600Z 1416/1515 24015KT 9999 BKN035
PROB30
TEMPO 1420/1503 4000 -SHRA BKN030TCU



MetMap, La meteo Aeronautica in un colpo d'occhio ! - Copyright ORBIFLY Dicembre 2007 - Disclaimer

ORBIFLY MET'MAP TEAM :

Programmazione e sviluppo : Alexandra Zaïnal
Concezione : Baudouin d'Aumeries
Supporto tecnico e logistico : Manuel Goepfert
Aiuto : Marc-Olivier Méhu
Aiuto per la traduzione : Arnaldo La Scala




FONTI E CREDITI :

   NOAA